sensor_id;sensor_type;location;lat;lon;timestamp;pressure;altitude;pressure_sealevel;temperature;humidity
49459;BME280;35354;51.296;16.924;2023-05-22T00:00:10;99792.84;;;17.58;67.97
49459;BME280;35354;51.296;16.924;2023-05-22T00:02:37;99793.56;;;17.60;67.83
49459;BME280;35354;51.296;16.924;2023-05-22T00:05:11;99817.34;;;17.71;67.98
49459;BME280;35354;51.296;16.924;2023-05-22T00:07:37;99795.09;;;17.52;67.90
49459;BME280;35354;51.296;16.924;2023-05-22T00:10:04;99805.19;;;17.58;67.71
49459;BME280;35354;51.296;16.924;2023-05-22T00:12:29;99814.53;;;17.62;67.70
49459;BME280;35354;51.296;16.924;2023-05-22T00:14:55;99787.84;;;17.42;67.67
49459;BME280;35354;51.296;16.924;2023-05-22T00:17:20;99789.25;;;17.35;66.92
49459;BME280;35354;51.296;16.924;2023-05-22T00:19:45;99803.53;;;17.44;67.01
49459;BME280;35354;51.296;16.924;2023-05-22T00:22:11;99795.53;;;17.45;66.95
49459;BME280;35354;51.296;16.924;2023-05-22T00:24:37;99775.59;;;17.30;66.39
49459;BME280;35354;51.296;16.924;2023-05-22T00:27:03;99777.50;;;17.28;66.26
49459;BME280;35354;51.296;16.924;2023-05-22T00:29:28;99784.44;;;17.29;65.85
49459;BME280;35354;51.296;16.924;2023-05-22T00:31:54;99782.53;;;17.31;65.77
49459;BME280;35354;51.296;16.924;2023-05-22T00:34:19;99789.50;;;17.32;65.20
49459;BME280;35354;51.296;16.924;2023-05-22T00:36:45;99792.84;;;17.34;65.27
49459;BME280;35354;51.296;16.924;2023-05-22T00:39:10;99796.31;;;17.35;65.09
49459;BME280;35354;51.296;16.924;2023-05-22T00:41:35;99810.22;;;17.37;64.56
49459;BME280;35354;51.296;16.924;2023-05-22T00:44:02;99755.94;;;17.10;64.37
49459;BME280;35354;51.296;16.924;2023-05-22T00:46:28;99787.78;;;17.31;64.23
49459;BME280;35354;51.296;16.924;2023-05-22T00:48:53;99786.13;;;17.30;64.11
49459;BME280;35354;51.296;16.924;2023-05-22T00:51:22;99792.50;;;17.39;63.90
49459;BME280;35354;51.296;16.924;2023-05-22T00:53:49;99794.63;;;17.34;63.54
49459;BME280;35354;51.296;16.924;2023-05-22T00:56:15;99783.81;;;17.26;63.49
49459;BME280;35354;51.296;16.924;2023-05-22T00:58:41;99795.69;;;17.31;63.28
49459;BME280;35354;51.296;16.924;2023-05-22T01:01:09;99767.84;;;17.16;62.88
49459;BME280;35354;51.296;16.924;2023-05-22T01:03:37;99782.97;;;17.25;62.76
49459;BME280;35354;51.296;16.924;2023-05-22T01:06:06;99799.41;;;17.29;62.26
49459;BME280;35354;51.296;16.924;2023-05-22T01:08:31;99800.63;;;17.36;62.59
49459;BME280;35354;51.296;16.924;2023-05-22T01:11:09;99803.00;;;17.28;62.60
49459;BME280;35354;51.296;16.924;2023-05-22T01:19:11;99779.03;;;17.07;61.67
49459;BME280;35354;51.296;16.924;2023-05-22T01:21:48;99787.44;;;17.12;61.38
49459;BME280;35354;51.296;16.924;2023-05-22T01:24:35;99794.06;;;17.17;60.98
49459;BME280;35354;51.296;16.924;2023-05-22T01:32:28;99798.16;;;17.21;61.00
49459;BME280;35354;51.296;16.924;2023-05-22T01:34:58;99795.38;;;17.23;60.80
49459;BME280;35354;51.296;16.924;2023-05-22T01:37:26;99792.19;;;17.07;60.86
49459;BME280;35354;51.296;16.924;2023-05-22T01:39:52;99803.75;;;17.17;60.96
49459;BME280;35354;51.296;16.924;2023-05-22T01:42:19;99775.88;;;17.02;60.89
49459;BME280;35354;51.296;16.924;2023-05-22T01:44:44;99802.91;;;17.16;61.10
49459;BME280;35354;51.296;16.924;2023-05-22T01:47:10;99788.69;;;17.06;60.77
49459;BME280;35354;51.296;16.924;2023-05-22T01:49:35;99793.75;;;17.09;60.74
49459;BME280;35354;51.296;16.924;2023-05-22T01:52:14;99794.59;;;17.10;60.92
49459;BME280;35354;51.296;16.924;2023-05-22T01:54:48;99787.69;;;16.96;61.06
49459;BME280;35354;51.296;16.924;2023-05-22T02:00:00;99780.94;;;17.05;60.73
49459;BME280;35354;51.296;16.924;2023-05-22T02:02:32;99788.94;;;17.03;60.96
49459;BME280;35354;51.296;16.924;2023-05-22T02:05:02;99754.47;;;16.82;60.93
49459;BME280;35354;51.296;16.924;2023-05-22T02:07:30;99774.69;;;16.82;61.27
49459;BME280;35354;51.296;16.924;2023-05-22T02:09:56;99792.31;;;16.92;60.91
49459;BME280;35354;51.296;16.924;2023-05-22T02:12:22;99780.56;;;16.73;60.97
49459;BME280;35354;51.296;16.924;2023-05-22T02:14:49;99793.28;;;16.79;61.44
49459;BME280;35354;51.296;16.924;2023-05-22T02:17:15;99774.75;;;16.67;61.37
49459;BME280;35354;51.296;16.924;2023-05-22T02:19:43;99789.09;;;16.76;61.37
49459;BME280;35354;51.296;16.924;2023-05-22T02:22:08;99784.91;;;16.74;61.42
49459;BME280;35354;51.296;16.924;2023-05-22T02:24:38;99795.41;;;16.74;61.71
49459;BME280;35354;51.296;16.924;2023-05-22T02:27:04;99796.03;;;16.64;61.71
49459;BME280;35354;51.296;16.924;2023-05-22T02:29:29;99782.56;;;16.56;61.71
49459;BME280;35354;51.296;16.924;2023-05-22T02:31:54;99805.06;;;16.60;61.99
49459;BME280;35354;51.296;16.924;2023-05-22T02:34:20;99793.16;;;16.55;61.72
49459;BME280;35354;51.296;16.924;2023-05-22T02:36:45;99779.00;;;16.44;61.41
49459;BME280;35354;51.296;16.924;2023-05-22T02:39:11;99780.22;;;16.39;61.66
49459;BME280;35354;51.296;16.924;2023-05-22T02:41:37;99785.72;;;16.36;61.44
49459;BME280;35354;51.296;16.924;2023-05-22T02:44:02;99785.28;;;16.42;61.51
49459;BME280;35354;51.296;16.924;2023-05-22T02:46:28;99783.81;;;16.38;61.49
49459;BME280;35354;51.296;16.924;2023-05-22T02:48:53;99766.88;;;16.29;61.51
49459;BME280;35354;51.296;16.924;2023-05-22T02:51:18;99782.25;;;16.35;61.16
49459;BME280;35354;51.296;16.924;2023-05-22T02:53:44;99758.28;;;16.27;61.07
49459;BME280;35354;51.296;16.924;2023-05-22T02:56:09;99775.09;;;16.37;61.13
49459;BME280;35354;51.296;16.924;2023-05-22T02:58:36;99766.06;;;16.29;60.79
49459;BME280;35354;51.296;16.924;2023-05-22T03:01:02;99773.41;;;16.36;60.99
49459;BME280;35354;51.296;16.924;2023-05-22T03:03:28;99761.22;;;16.23;60.85
49459;BME280;35354;51.296;16.924;2023-05-22T03:05:53;99793.94;;;16.31;61.09
49459;BME280;35354;51.296;16.924;2023-05-22T03:08:23;99769.63;;;16.28;60.80
49459;BME280;35354;51.296;16.924;2023-05-22T03:10:48;99765.84;;;16.32;60.80
49459;BME280;35354;51.296;16.924;2023-05-22T03:13:13;99748.50;;;16.16;60.93
49459;BME280;35354;51.296;16.924;2023-05-22T03:15:38;99780.78;;;16.31;60.98
49459;BME280;35354;51.296;16.924;2023-05-22T03:18:04;99759.53;;;16.21;60.78
49459;BME280;35354;51.296;16.924;2023-05-22T03:20:30;99783.94;;;16.36;60.76
49459;BME280;35354;51.296;16.924;2023-05-22T03:22:55;99781.38;;;16.35;60.84
49459;BME280;35354;51.296;16.924;2023-05-22T03:25:21;99718.31;;;15.96;60.88
49459;BME280;35354;51.296;16.924;2023-05-22T03:27:46;99758.34;;;16.13;60.91
49459;BME280;35354;51.296;16.924;2023-05-22T03:30:12;99748.09;;;16.10;61.03
49459;BME280;35354;51.296;16.924;2023-05-22T03:32:38;99752.91;;;16.16;60.99
49459;BME280;35354;51.296;16.924;2023-05-22T03:35:03;99764.38;;;16.28;61.10
49459;BME280;35354;51.296;16.924;2023-05-22T03:37:29;99782.34;;;16.34;61.04
49459;BME280;35354;51.296;16.924;2023-05-22T03:39:55;99759.94;;;16.15;61.07
49459;BME280;35354;51.296;16.924;2023-05-22T03:42:20;99773.75;;;16.32;60.99
49459;BME280;35354;51.296;16.924;2023-05-22T03:44:45;99745.88;;;16.16;61.01
49459;BME280;35354;51.296;16.924;2023-05-22T03:47:11;99746.19;;;16.25;60.69
49459;BME280;35354;51.296;16.924;2023-05-22T03:49:36;99750.28;;;16.29;60.93
49459;BME280;35354;51.296;16.924;2023-05-22T03:52:02;99777.09;;;16.46;60.54
49459;BME280;35354;51.296;16.924;2023-05-22T03:54:27;99762.47;;;16.42;60.59
49459;BME280;35354;51.296;16.924;2023-05-22T03:56:53;99747.97;;;16.37;60.23
49459;BME280;35354;51.296;16.924;2023-05-22T03:59:18;99772.66;;;16.60;60.21
49459;BME280;35354;51.296;16.924;2023-05-22T04:01:43;99768.66;;;16.67;59.94
49459;BME280;35354;51.296;16.924;2023-05-22T04:04:10;99746.44;;;16.71;59.64
49459;BME280;35354;51.296;16.924;2023-05-22T04:06:36;99737.94;;;17.17;58.72
49459;BME280;35354;51.296;16.924;2023-05-22T04:09:08;99754.63;;;18.12;56.76
49459;BME280;35354;51.296;16.924;2023-05-22T04:11:34;99760.56;;;18.94;55.15
49459;BME280;35354;51.296;16.924;2023-05-22T04:14:02;99758.59;;;19.51;53.85
49459;BME280;35354;51.296;16.924;2023-05-22T04:16:27;99753.19;;;19.52;53.18
49459;BME280;35354;51.296;16.924;2023-05-22T04:18:53;99763.03;;;19.50;52.75
49459;BME280;35354;51.296;16.924;2023-05-22T04:21:18;99761.75;;;19.44;53.07
49459;BME280;35354;51.296;16.924;2023-05-22T04:23:43;99756.25;;;19.36;53.14
49459;BME280;35354;51.296;16.924;2023-05-22T04:26:09;99742.19;;;19.47;52.47
49459;BME280;35354;51.296;16.924;2023-05-22T04:28:35;99742.63;;;20.05;52.07
49459;BME280;35354;51.296;16.924;2023-05-22T04:31:00;99759.41;;;21.07;49.71
49459;BME280;35354;51.296;16.924;2023-05-22T04:33:26;99742.75;;;21.84;48.26
49459;BME280;35354;51.296;16.924;2023-05-22T04:35:53;99753.50;;;22.59;47.15
49459;BME280;35354;51.296;16.924;2023-05-22T04:38:18;99741.81;;;22.42;46.88
49459;BME280;35354;51.296;16.924;2023-05-22T04:40:43;99741.59;;;22.06;47.37
49459;BME280;35354;51.296;16.924;2023-05-22T04:43:09;99740.78;;;21.77;47.79
49459;BME280;35354;51.296;16.924;2023-05-22T04:45:36;99740.81;;;21.67;48.25
49459;BME280;35354;51.296;16.924;2023-05-22T04:48:02;99753.06;;;21.68;47.63
49459;BME280;35354;51.296;16.924;2023-05-22T04:50:27;99740.19;;;22.02;47.18
49459;BME280;35354;51.296;16.924;2023-05-22T04:52:56;99737.06;;;22.73;46.51
49459;BME280;35354;51.296;16.924;2023-05-22T04:55:23;99751.53;;;24.05;44.09
49459;BME280;35354;51.296;16.924;2023-05-22T04:57:49;99749.31;;;24.79;43.19
49459;BME280;35354;51.296;16.924;2023-05-22T05:00:14;99745.34;;;24.83;42.79
49459;BME280;35354;51.296;16.924;2023-05-22T05:02:41;99747.63;;;24.44;43.75
49459;BME280;35354;51.296;16.924;2023-05-22T05:05:07;99752.19;;;23.81;43.71
49459;BME280;35354;51.296;16.924;2023-05-22T05:07:35;99742.28;;;23.38;44.16
49459;BME280;35354;51.296;16.924;2023-05-22T05:10:01;99757.19;;;23.49;44.56
49459;BME280;35354;51.296;16.924;2023-05-22T05:12:26;99757.03;;;23.68;44.91
49459;BME280;35354;51.296;16.924;2023-05-22T05:14:52;99766.78;;;24.21;44.11
49459;BME280;35354;51.296;16.924;2023-05-22T05:17:17;99742.06;;;25.05;43.12
49459;BME280;35354;51.296;16.924;2023-05-22T05:19:42;99750.19;;;26.20;41.37
49459;BME280;35354;51.296;16.924;2023-05-22T05:22:08;99746.56;;;26.12;41.21
49459;BME280;35354;51.296;16.924;2023-05-22T05:24:33;99745.38;;;25.82;42.37
49459;BME280;35354;51.296;16.924;2023-05-22T05:26:58;99746.34;;;25.57;42.08
49459;BME280;35354;51.296;16.924;2023-05-22T05:29:24;99760.38;;;25.75;42.58
49459;BME280;35354;51.296;16.924;2023-05-22T05:31:49;99750.03;;;25.64;42.19
49459;BME280;35354;51.296;16.924;2023-05-22T05:34:15;99744.91;;;25.79;42.06
49459;BME280;35354;51.296;16.924;2023-05-22T05:36:40;99772.69;;;26.33;41.32
49459;BME280;35354;51.296;16.924;2023-05-22T05:39:05;99764.50;;;26.51;40.37
49459;BME280;35354;51.296;16.924;2023-05-22T05:41:31;99765.88;;;26.31;41.18
49459;BME280;35354;51.296;16.924;2023-05-22T05:43:56;99743.19;;;25.70;41.64
49459;BME280;35354;51.296;16.924;2023-05-22T05:46:24;99749.97;;;24.81;43.13
49459;BME280;35354;51.296;16.924;2023-05-22T05:48:49;99768.72;;;24.37;44.51
49459;BME280;35354;51.296;16.924;2023-05-22T05:51:15;99756.44;;;23.74;45.96
49459;BME280;35354;51.296;16.924;2023-05-22T05:53:40;99749.41;;;23.55;46.03
49459;BME280;35354;51.296;16.924;2023-05-22T05:56:07;99773.91;;;23.95;45.58
49459;BME280;35354;51.296;16.924;2023-05-22T05:58:32;99766.34;;;24.34;45.18
49459;BME280;35354;51.296;16.924;2023-05-22T06:00:58;99765.69;;;24.92;44.44
49459;BME280;35354;51.296;16.924;2023-05-22T06:03:23;99766.34;;;24.94;44.24
49459;BME280;35354;51.296;16.924;2023-05-22T06:05:49;99753.56;;;24.63;44.85
49459;BME280;35354;51.296;16.924;2023-05-22T06:08:15;99771.63;;;24.86;44.63
49459;BME280;35354;51.296;16.924;2023-05-22T06:10:40;99763.13;;;25.17;44.58
49459;BME280;35354;51.296;16.924;2023-05-22T06:13:05;99764.41;;;25.79;43.37
49459;BME280;35354;51.296;16.924;2023-05-22T06:15:31;99766.78;;;26.62;42.67
49459;BME280;35354;51.296;16.924;2023-05-22T06:17:56;99755.06;;;27.42;41.41
49459;BME280;35354;51.296;16.924;2023-05-22T06:20:22;99767.44;;;27.66;41.11
49459;BME280;35354;51.296;16.924;2023-05-22T06:22:49;99736.63;;;27.47;41.30
49459;BME280;35354;51.296;16.924;2023-05-22T06:25:15;99732.66;;;27.20;41.94
49459;BME280;35354;51.296;16.924;2023-05-22T06:27:40;99761.69;;;27.54;41.49
49459;BME280;35354;51.296;16.924;2023-05-22T06:30:07;99751.22;;;27.91;41.22
49459;BME280;35354;51.296;16.924;2023-05-22T06:32:32;99764.22;;;29.42;39.87
49459;BME280;35354;51.296;16.924;2023-05-22T06:34:58;99756.03;;;30.77;37.85
49459;BME280;35354;51.296;16.924;2023-05-22T06:37:23;99747.41;;;31.89;36.79
49459;BME280;35354;51.296;16.924;2023-05-22T06:39:48;99764.34;;;33.21;35.46
49459;BME280;35354;51.296;16.924;2023-05-22T06:42:14;99763.66;;;34.39;34.17
49459;BME280;35354;51.296;16.924;2023-05-22T06:44:39;99779.25;;;34.98;33.18
49459;BME280;35354;51.296;16.924;2023-05-22T06:47:04;99749.47;;;35.29;32.88
49459;BME280;35354;51.296;16.924;2023-05-22T06:49:30;99775.63;;;35.65;32.82
49459;BME280;35354;51.296;16.924;2023-05-22T06:51:55;99781.13;;;36.00;32.34
49459;BME280;35354;51.296;16.924;2023-05-22T06:54:21;99777.31;;;35.89;32.20
49459;BME280;35354;51.296;16.924;2023-05-22T06:56:46;99743.94;;;35.54;32.11
49459;BME280;35354;51.296;16.924;2023-05-22T06:59:11;99776.63;;;35.82;32.05
49459;BME280;35354;51.296;16.924;2023-05-22T07:01:37;99769.94;;;35.55;31.70
49459;BME280;35354;51.296;16.924;2023-05-22T07:04:02;99772.94;;;35.77;31.95
49459;BME280;35354;51.296;16.924;2023-05-22T07:06:32;99777.00;;;36.56;31.05
49459;BME280;35354;51.296;16.924;2023-05-22T07:08:58;99767.38;;;37.01;31.08
49459;BME280;35354;51.296;16.924;2023-05-22T07:11:23;99768.50;;;37.33;30.94
49459;BME280;35354;51.296;16.924;2023-05-22T07:13:48;99763.25;;;38.23;30.21
49459;BME280;35354;51.296;16.924;2023-05-22T07:16:14;99756.06;;;37.83;29.77
49459;BME280;35354;51.296;16.924;2023-05-22T07:18:39;99771.75;;;37.92;29.31
49459;BME280;35354;51.296;16.924;2023-05-22T07:21:05;99777.25;;;37.81;30.12
49459;BME280;35354;51.296;16.924;2023-05-22T07:23:31;99758.31;;;37.52;29.61
49459;BME280;35354;51.296;16.924;2023-05-22T07:25:56;99758.06;;;37.70;30.21
49459;BME280;35354;51.296;16.924;2023-05-22T07:28:22;99745.41;;;37.93;29.63
49459;BME280;35354;51.296;16.924;2023-05-22T07:30:47;99749.97;;;37.76;29.80
49459;BME280;35354;51.296;16.924;2023-05-22T07:33:12;99754.47;;;37.99;30.01
49459;BME280;35354;51.296;16.924;2023-05-22T07:35:38;99778.00;;;39.09;29.34
49459;BME280;35354;51.296;16.924;2023-05-22T07:38:03;99768.38;;;38.58;29.55
49459;BME280;35354;51.296;16.924;2023-05-22T07:40:28;99768.63;;;38.56;30.28
49459;BME280;35354;51.296;16.924;2023-05-22T07:42:54;99768.50;;;38.68;29.40
49459;BME280;35354;51.296;16.924;2023-05-22T07:45:20;99751.47;;;38.56;28.96
49459;BME280;35354;51.296;16.924;2023-05-22T07:47:45;99749.75;;;38.11;29.37
49459;BME280;35354;51.296;16.924;2023-05-22T07:50:10;99768.59;;;38.34;29.43
49459;BME280;35354;51.296;16.924;2023-05-22T07:52:36;99762.81;;;38.31;29.34
49459;BME280;35354;51.296;16.924;2023-05-22T07:55:01;99766.69;;;38.52;29.61
49459;BME280;35354;51.296;16.924;2023-05-22T07:57:26;99774.44;;;38.82;29.17
49459;BME280;35354;51.296;16.924;2023-05-22T07:59:53;99756.94;;;38.39;29.08
49459;BME280;35354;51.296;16.924;2023-05-22T08:02:19;99757.66;;;38.12;29.95
49459;BME280;35354;51.296;16.924;2023-05-22T08:04:44;99740.19;;;37.75;29.39
49459;BME280;35354;51.296;16.924;2023-05-22T08:07:10;99750.84;;;36.90;30.05
49459;BME280;35354;51.296;16.924;2023-05-22T08:09:35;99748.47;;;35.95;31.00
49459;BME280;35354;51.296;16.924;2023-05-22T08:12:01;99736.25;;;34.54;31.78
49459;BME280;35354;51.296;16.924;2023-05-22T08:14:27;99749.06;;;33.01;33.42
49459;BME280;35354;51.296;16.924;2023-05-22T08:16:52;99734.72;;;31.37;33.58
49459;BME280;35354;51.296;16.924;2023-05-22T08:19:18;99738.09;;;30.21;35.80
49459;BME280;35354;51.296;16.924;2023-05-22T08:21:43;99756.81;;;29.07;35.93
49459;BME280;35354;51.296;16.924;2023-05-22T08:24:08;99759.09;;;28.45;36.98
49459;BME280;35354;51.296;16.924;2023-05-22T08:26:34;99739.94;;;27.72;37.16
49459;BME280;35354;51.296;16.924;2023-05-22T08:28:59;99753.69;;;27.46;37.49
49459;BME280;35354;51.296;16.924;2023-05-22T08:31:25;99747.09;;;27.34;38.75
49459;BME280;35354;51.296;16.924;2023-05-22T08:33:51;99726.84;;;27.08;38.59
49459;BME280;35354;51.296;16.924;2023-05-22T08:36:17;99725.34;;;27.14;38.41
49459;BME280;35354;51.296;16.924;2023-05-22T08:38:42;99743.88;;;27.07;37.73
49459;BME280;35354;51.296;16.924;2023-05-22T08:41:08;99730.88;;;26.73;38.29
49459;BME280;35354;51.296;16.924;2023-05-22T08:43:34;99743.75;;;26.61;38.53
49459;BME280;35354;51.296;16.924;2023-05-22T08:46:04;99754.47;;;26.53;38.20
49459;BME280;35354;51.296;16.924;2023-05-22T08:48:30;99752.50;;;26.39;38.40
49459;BME280;35354;51.296;16.924;2023-05-22T08:50:58;99746.56;;;26.12;38.89
49459;BME280;35354;51.296;16.924;2023-05-22T08:53:27;99747.22;;;25.90;38.86
49459;BME280;35354;51.296;16.924;2023-05-22T08:55:53;99749.53;;;25.69;39.78
49459;BME280;35354;51.296;16.924;2023-05-22T08:58:20;99746.34;;;25.65;38.95
49459;BME280;35354;51.296;16.924;2023-05-22T09:00:46;99755.84;;;25.43;39.68
49459;BME280;35354;51.296;16.924;2023-05-22T09:03:12;99732.97;;;25.32;39.94
49459;BME280;35354;51.296;16.924;2023-05-22T09:05:38;99718.13;;;25.13;39.20
49459;BME280;35354;51.296;16.924;2023-05-22T09:08:05;99733.28;;;25.13;40.00
49459;BME280;35354;51.296;16.924;2023-05-22T09:10:33;99724.47;;;25.12;40.06
49459;BME280;35354;51.296;16.924;2023-05-22T09:13:05;99734.13;;;25.13;40.74
49459;BME280;35354;51.296;16.924;2023-05-22T09:15:36;99710.47;;;25.10;40.36
49459;BME280;35354;51.296;16.924;2023-05-22T09:18:02;99715.66;;;25.20;39.36
49459;BME280;35354;51.296;16.924;2023-05-22T09:20:28;99730.97;;;25.18;39.38
49459;BME280;35354;51.296;16.924;2023-05-22T09:22:53;99705.56;;;24.98;39.15
49459;BME280;35354;51.296;16.924;2023-05-22T09:25:20;99730.00;;;24.85;39.88
49459;BME280;35354;51.296;16.924;2023-05-22T09:27:46;99698.50;;;24.72;40.62
49459;BME280;35354;51.296;16.924;2023-05-22T09:30:18;99720.09;;;25.03;40.48
49459;BME280;35354;51.296;16.924;2023-05-22T09:32:44;99711.72;;;24.98;39.55
49459;BME280;35354;51.296;16.924;2023-05-22T09:35:11;99732.19;;;24.89;38.42
49459;BME280;35354;51.296;16.924;2023-05-22T09:37:38;99697.84;;;24.70;39.87
49459;BME280;35354;51.296;16.924;2023-05-22T09:40:08;99708.78;;;24.59;40.28
49459;BME280;35354;51.296;16.924;2023-05-22T09:42:35;99732.28;;;24.72;39.26
49459;BME280;35354;51.296;16.924;2023-05-22T09:45:05;99729.22;;;24.50;39.78
49459;BME280;35354;51.296;16.924;2023-05-22T09:47:31;99715.22;;;24.48;40.26
49459;BME280;35354;51.296;16.924;2023-05-22T09:49:59;99702.94;;;24.55;41.05
49459;BME280;35354;51.296;16.924;2023-05-22T09:52:27;99713.03;;;24.78;41.39
49459;BME280;35354;51.296;16.924;2023-05-22T09:54:54;99697.88;;;24.78;41.43
49459;BME280;35354;51.296;16.924;2023-05-22T09:57:23;99671.00;;;24.63;40.62
49459;BME280;35354;51.296;16.924;2023-05-22T09:59:53;99692.16;;;24.65;40.34
49459;BME280;35354;51.296;16.924;2023-05-22T10:02:21;99698.28;;;24.57;40.26
49459;BME280;35354;51.296;16.924;2023-05-22T10:04:48;99699.50;;;24.71;40.28
49459;BME280;35354;51.296;16.924;2023-05-22T10:07:18;99667.56;;;24.37;40.41
49459;BME280;35354;51.296;16.924;2023-05-22T10:09:50;99674.09;;;24.43;41.14
49459;BME280;35354;51.296;16.924;2023-05-22T10:12:19;99680.75;;;24.47;39.99
49459;BME280;35354;51.296;16.924;2023-05-22T10:14:46;99680.47;;;24.58;39.53
49459;BME280;35354;51.296;16.924;2023-05-22T10:17:11;99689.00;;;24.61;39.65
49459;BME280;35354;51.296;16.924;2023-05-22T10:19:39;99670.06;;;24.38;39.92
49459;BME280;35354;51.296;16.924;2023-05-22T10:22:05;99680.59;;;24.40;40.48
49459;BME280;35354;51.296;16.924;2023-05-22T10:24:31;99687.09;;;24.46;41.27
49459;BME280;35354;51.296;16.924;2023-05-22T10:26:58;99653.69;;;24.25;40.24
49459;BME280;35354;51.296;16.924;2023-05-22T10:29:29;99646.69;;;24.24;40.87
49459;BME280;35354;51.296;16.924;2023-05-22T10:32:00;99691.41;;;24.47;40.65
49459;BME280;35354;51.296;16.924;2023-05-22T10:39:50;99665.88;;;24.36;38.85
49459;BME280;35354;51.296;16.924;2023-05-22T10:42:18;99686.91;;;24.47;38.96
49459;BME280;35354;51.296;16.924;2023-05-22T10:44:46;99680.78;;;24.55;40.01
49459;BME280;35354;51.296;16.924;2023-05-22T10:47:13;99665.78;;;24.46;39.40
49459;BME280;35354;51.296;16.924;2023-05-22T10:49:42;99656.34;;;24.25;40.43
49459;BME280;35354;51.296;16.924;2023-05-22T10:52:11;99680.94;;;24.45;40.32
49459;BME280;35354;51.296;16.924;2023-05-22T10:54:43;99672.84;;;24.29;40.21
49459;BME280;35354;51.296;16.924;2023-05-22T10:57:14;99678.91;;;24.13;39.67
49459;BME280;35354;51.296;16.924;2023-05-22T10:59:41;99649.19;;;23.92;39.50
49459;BME280;35354;51.296;16.924;2023-05-22T11:02:20;99666.81;;;23.93;39.23
49459;BME280;35354;51.296;16.924;2023-05-22T11:04:46;99633.34;;;23.82;40.39
49459;BME280;35354;51.296;16.924;2023-05-22T11:07:11;99682.50;;;24.04;39.45
49459;BME280;35354;51.296;16.924;2023-05-22T11:09:41;99654.31;;;23.93;39.39
49459;BME280;35354;51.296;16.924;2023-05-22T11:12:23;99674.94;;;24.17;39.71
49459;BME280;35354;51.296;16.924;2023-05-22T11:14:57;99657.91;;;24.10;39.90
49459;BME280;35354;51.296;16.924;2023-05-22T11:17:27;99642.13;;;24.08;39.93
49459;BME280;35354;51.296;16.924;2023-05-22T11:22:42;99630.44;;;24.01;40.34
49459;BME280;35354;51.296;16.924;2023-05-22T11:25:15;99652.72;;;24.00;41.30
49459;BME280;35354;51.296;16.924;2023-05-22T11:27:42;99632.75;;;23.96;39.49
49459;BME280;35354;51.296;16.924;2023-05-22T11:30:08;99639.25;;;24.02;39.94
49459;BME280;35354;51.296;16.924;2023-05-22T11:32:38;99636.97;;;24.07;39.32
49459;BME280;35354;51.296;16.924;2023-05-22T11:35:03;99647.66;;;24.15;39.74
49459;BME280;35354;51.296;16.924;2023-05-22T11:37:30;99635.28;;;24.06;39.78
49459;BME280;35354;51.296;16.924;2023-05-22T11:39:56;99630.00;;;24.14;40.35
49459;BME280;35354;51.296;16.924;2023-05-22T11:42:23;99643.50;;;24.21;40.52
49459;BME280;35354;51.296;16.924;2023-05-22T11:44:48;99633.03;;;24.19;40.26
49459;BME280;35354;51.296;16.924;2023-05-22T11:47:14;99627.19;;;24.15;40.33
49459;BME280;35354;51.296;16.924;2023-05-22T11:49:40;99641.94;;;24.10;39.63
49459;BME280;35354;51.296;16.924;2023-05-22T11:52:07;99642.47;;;24.13;40.44
49459;BME280;35354;51.296;16.924;2023-05-22T11:54:33;99623.16;;;24.03;42.26
49459;BME280;35354;51.296;16.924;2023-05-22T11:56:58;99606.97;;;23.97;41.85
49459;BME280;35354;51.296;16.924;2023-05-22T11:59:23;99625.03;;;24.11;41.89
49459;BME280;35354;51.296;16.924;2023-05-22T12:01:49;99611.16;;;23.99;42.18
49459;BME280;35354;51.296;16.924;2023-05-22T12:04:15;99621.41;;;24.20;40.98
49459;BME280;35354;51.296;16.924;2023-05-22T12:06:41;99608.88;;;24.12;40.32
49459;BME280;35354;51.296;16.924;2023-05-22T12:09:06;99622.31;;;24.37;40.43
49459;BME280;35354;51.296;16.924;2023-05-22T12:11:36;99642.06;;;24.34;39.90
49459;BME280;35354;51.296;16.924;2023-05-22T12:14:02;99600.25;;;24.10;39.76
49459;BME280;35354;51.296;16.924;2023-05-22T12:16:33;99616.69;;;24.14;39.73
49459;BME280;35354;51.296;16.924;2023-05-22T12:18:59;99619.00;;;24.09;40.04
49459;BME280;35354;51.296;16.924;2023-05-22T12:21:25;99600.56;;;24.07;39.71
49459;BME280;35354;51.296;16.924;2023-05-22T12:23:51;99596.28;;;24.14;39.48
49459;BME280;35354;51.296;16.924;2023-05-22T12:26:16;99610.47;;;24.31;38.96
49459;BME280;35354;51.296;16.924;2023-05-22T12:28:42;99610.31;;;24.33;40.11
49459;BME280;35354;51.296;16.924;2023-05-22T12:31:08;99604.97;;;24.33;41.16
49459;BME280;35354;51.296;16.924;2023-05-22T12:33:33;99611.78;;;24.35;40.66
49459;BME280;35354;51.296;16.924;2023-05-22T12:35:58;99573.16;;;24.15;40.07
49459;BME280;35354;51.296;16.924;2023-05-22T12:38:29;99599.22;;;24.46;40.72
49459;BME280;35354;51.296;16.924;2023-05-22T12:40:55;99606.91;;;24.49;40.53
49459;BME280;35354;51.296;16.924;2023-05-22T12:43:22;99613.56;;;24.53;41.33
49459;BME280;35354;51.296;16.924;2023-05-22T12:45:49;99602.16;;;24.34;41.38
49459;BME280;35354;51.296;16.924;2023-05-22T12:48:14;99583.84;;;24.31;40.83
49459;BME280;35354;51.296;16.924;2023-05-22T12:50:42;99599.53;;;24.43;41.78
49459;BME280;35354;51.296;16.924;2023-05-22T12:53:07;99583.44;;;24.44;41.32
49459;BME280;35354;51.296;16.924;2023-05-22T12:55:32;99582.28;;;24.63;42.33
49459;BME280;35354;51.296;16.924;2023-05-22T12:57:58;99568.97;;;24.63;41.31
49459;BME280;35354;51.296;16.924;2023-05-22T13:00:24;99585.81;;;24.72;40.39
49459;BME280;35354;51.296;16.924;2023-05-22T13:02:50;99596.13;;;24.67;40.43
49459;BME280;35354;51.296;16.924;2023-05-22T13:05:15;99555.41;;;24.32;40.62
49459;BME280;35354;51.296;16.924;2023-05-22T13:07:41;99599.59;;;24.59;41.04